sensor_id;sensor_type;location;lat;lon;timestamp;pressure;altitude;pressure_sealevel;temperature;humidity
42601;BME280;28229;48.856;9.088;2023-05-10T00:00:53;97328.19;;;13.04;100.00
42601;BME280;28229;48.856;9.088;2023-05-10T00:03:19;97335.81;;;13.01;100.00
42601;BME280;28229;48.856;9.088;2023-05-10T00:05:45;97325.19;;;12.95;100.00
42601;BME280;28229;48.856;9.088;2023-05-10T00:08:11;97331.47;;;12.89;100.00
42601;BME280;28229;48.856;9.088;2023-05-10T00:10:38;97332.50;;;12.88;100.00
42601;BME280;28229;48.856;9.088;2023-05-10T00:13:04;97330.91;;;12.87;100.00
42601;BME280;28229;48.856;9.088;2023-05-10T00:15:30;97328.16;;;12.77;100.00
42601;BME280;28229;48.856;9.088;2023-05-10T00:17:56;97333.13;;;12.73;100.00
42601;BME280;28229;48.856;9.088;2023-05-10T00:20:23;97328.63;;;12.74;100.00
42601;BME280;28229;48.856;9.088;2023-05-10T00:22:49;97329.16;;;12.71;100.00
42601;BME280;28229;48.856;9.088;2023-05-10T00:25:15;97330.66;;;12.67;100.00
42601;BME280;28229;48.856;9.088;2023-05-10T00:27:41;97332.19;;;12.63;100.00
42601;BME280;28229;48.856;9.088;2023-05-10T00:30:07;97331.09;;;12.59;100.00
42601;BME280;28229;48.856;9.088;2023-05-10T00:32:35;97325.06;;;12.63;100.00
42601;BME280;28229;48.856;9.088;2023-05-10T00:35:01;97328.72;;;12.57;100.00
42601;BME280;28229;48.856;9.088;2023-05-10T00:37:27;97326.25;;;12.50;100.00
42601;BME280;28229;48.856;9.088;2023-05-10T00:39:54;97326.16;;;12.45;100.00
42601;BME280;28229;48.856;9.088;2023-05-10T00:42:20;97327.94;;;12.40;100.00
42601;BME280;28229;48.856;9.088;2023-05-10T00:44:47;97328.81;;;12.45;100.00
42601;BME280;28229;48.856;9.088;2023-05-10T00:47:13;97342.97;;;12.39;100.00
42601;BME280;28229;48.856;9.088;2023-05-10T00:49:41;97347.75;;;12.42;100.00
42601;BME280;28229;48.856;9.088;2023-05-10T00:52:08;97346.09;;;12.36;100.00
42601;BME280;28229;48.856;9.088;2023-05-10T00:54:34;97350.28;;;12.32;100.00
42601;BME280;28229;48.856;9.088;2023-05-10T00:57:00;97353.94;;;12.31;100.00
42601;BME280;28229;48.856;9.088;2023-05-10T00:59:28;97355.16;;;12.23;100.00
42601;BME280;28229;48.856;9.088;2023-05-10T01:01:54;97356.94;;;12.17;100.00
42601;BME280;28229;48.856;9.088;2023-05-10T01:04:23;97364.34;;;12.21;100.00
42601;BME280;28229;48.856;9.088;2023-05-10T01:06:52;97366.19;;;12.20;100.00
42601;BME280;28229;48.856;9.088;2023-05-10T01:09:20;97364.84;;;12.17;100.00
42601;BME280;28229;48.856;9.088;2023-05-10T01:11:47;97365.53;;;12.13;100.00
42601;BME280;28229;48.856;9.088;2023-05-10T01:14:15;97363.16;;;12.11;100.00
42601;BME280;28229;48.856;9.088;2023-05-10T01:16:44;97365.31;;;12.14;100.00
42601;BME280;28229;48.856;9.088;2023-05-10T01:19:26;97364.53;;;12.14;100.00
42601;BME280;28229;48.856;9.088;2023-05-10T01:33:24;97364.91;;;12.06;100.00
42601;BME280;28229;48.856;9.088;2023-05-10T01:41:07;97364.91;;;12.06;100.00
42601;BME280;28229;48.856;9.088;2023-05-10T01:43:49;97371.44;;;12.03;100.00
42601;BME280;28229;48.856;9.088;2023-05-10T01:46:28;97367.78;;;12.04;100.00
42601;BME280;28229;48.856;9.088;2023-05-10T01:48:57;97365.94;;;12.05;100.00
42601;BME280;28229;48.856;9.088;2023-05-10T01:51:31;97367.47;;;12.00;100.00
42601;BME280;28229;48.856;9.088;2023-05-10T01:54:01;97373.44;;;11.96;100.00
42601;BME280;28229;48.856;9.088;2023-05-10T01:56:29;97368.75;;;11.98;100.00
42601;BME280;28229;48.856;9.088;2023-05-10T01:58:57;97376.41;;;11.99;100.00
42601;BME280;28229;48.856;9.088;2023-05-10T02:01:26;97375.06;;;11.97;100.00
42601;BME280;28229;48.856;9.088;2023-05-10T02:03:53;97378.97;;;11.94;100.00
42601;BME280;28229;48.856;9.088;2023-05-10T02:06:22;97381.34;;;11.96;100.00
42601;BME280;28229;48.856;9.088;2023-05-10T02:08:50;97383.44;;;11.94;100.00
42601;BME280;28229;48.856;9.088;2023-05-10T02:11:19;97382.41;;;11.95;100.00
42601;BME280;28229;48.856;9.088;2023-05-10T02:13:48;97387.13;;;11.93;100.00
42601;BME280;28229;48.856;9.088;2023-05-10T02:16:16;97385.03;;;11.95;100.00
42601;BME280;28229;48.856;9.088;2023-05-10T02:18:46;97383.44;;;11.94;100.00
42601;BME280;28229;48.856;9.088;2023-05-10T02:21:17;97380.69;;;11.89;100.00
42601;BME280;28229;48.856;9.088;2023-05-10T02:23:44;97381.28;;;11.91;100.00
42601;BME280;28229;48.856;9.088;2023-05-10T02:26:12;97390.19;;;11.90;100.00
42601;BME280;28229;48.856;9.088;2023-05-10T02:28:40;97393.97;;;11.94;100.00
42601;BME280;28229;48.856;9.088;2023-05-10T02:31:07;97390.31;;;11.95;100.00
42601;BME280;28229;48.856;9.088;2023-05-10T02:33:39;97401.41;;;11.97;100.00
42601;BME280;28229;48.856;9.088;2023-05-10T02:36:07;97408.22;;;11.93;100.00
42601;BME280;28229;48.856;9.088;2023-05-10T02:38:36;97410.84;;;11.93;100.00
42601;BME280;28229;48.856;9.088;2023-05-10T02:41:04;97413.56;;;11.98;100.00
42601;BME280;28229;48.856;9.088;2023-05-10T02:43:32;97407.72;;;11.96;100.00
42601;BME280;28229;48.856;9.088;2023-05-10T02:45:59;97421.16;;;11.94;100.00
42601;BME280;28229;48.856;9.088;2023-05-10T02:48:25;97416.22;;;11.98;100.00
42601;BME280;28229;48.856;9.088;2023-05-10T02:50:55;97409.78;;;11.94;100.00
42601;BME280;28229;48.856;9.088;2023-05-10T02:53:23;97417.38;;;11.90;100.00
42601;BME280;28229;48.856;9.088;2023-05-10T02:55:58;97411.88;;;11.92;100.00
42601;BME280;28229;48.856;9.088;2023-05-10T02:58:25;97417.78;;;11.99;100.00
42601;BME280;28229;48.856;9.088;2023-05-10T03:00:54;97417.78;;;11.99;100.00
42601;BME280;28229;48.856;9.088;2023-05-10T03:03:21;97413.31;;;11.99;100.00
42601;BME280;28229;48.856;9.088;2023-05-10T03:05:49;97410.44;;;12.01;100.00
42601;BME280;28229;48.856;9.088;2023-05-10T03:08:15;97416.53;;;12.02;100.00
42601;BME280;28229;48.856;9.088;2023-05-10T03:10:54;97417.00;;;11.98;100.00
42601;BME280;28229;48.856;9.088;2023-05-10T03:13:32;97427.78;;;11.97;100.00
42601;BME280;28229;48.856;9.088;2023-05-10T03:16:08;97429.13;;;11.99;100.00
42601;BME280;28229;48.856;9.088;2023-05-10T03:21:42;97427.22;;;11.95;100.00
42601;BME280;28229;48.856;9.088;2023-05-10T03:24:12;97429.19;;;11.88;100.00
42601;BME280;28229;48.856;9.088;2023-05-10T03:26:43;97432.50;;;11.95;100.00
42601;BME280;28229;48.856;9.088;2023-05-10T03:29:15;97430.31;;;11.92;100.00
42601;BME280;28229;48.856;9.088;2023-05-10T03:31:41;97433.53;;;11.94;100.00
42601;BME280;28229;48.856;9.088;2023-05-10T03:34:08;97429.75;;;11.90;100.00
42601;BME280;28229;48.856;9.088;2023-05-10T03:36:34;97432.38;;;11.90;100.00
42601;BME280;28229;48.856;9.088;2023-05-10T03:39:00;97429.75;;;11.90;100.00
42601;BME280;28229;48.856;9.088;2023-05-10T03:41:27;97432.38;;;11.90;100.00
42601;BME280;28229;48.856;9.088;2023-05-10T03:43:54;97436.66;;;11.91;100.00
42601;BME280;28229;48.856;9.088;2023-05-10T03:46:20;97440.63;;;11.93;100.00
42601;BME280;28229;48.856;9.088;2023-05-10T03:48:46;97431.81;;;11.88;100.00
42601;BME280;28229;48.856;9.088;2023-05-10T03:51:12;97440.75;;;11.87;100.00
42601;BME280;28229;48.856;9.088;2023-05-10T03:53:39;97436.75;;;11.84;100.00
42601;BME280;28229;48.856;9.088;2023-05-10T03:56:05;97441.25;;;11.84;100.00
42601;BME280;28229;48.856;9.088;2023-05-10T03:58:32;97439.06;;;11.80;100.00
42601;BME280;28229;48.856;9.088;2023-05-10T04:00:58;97437.56;;;11.85;100.00
42601;BME280;28229;48.856;9.088;2023-05-10T04:03:24;97442.59;;;11.86;100.00
42601;BME280;28229;48.856;9.088;2023-05-10T04:05:59;97443.16;;;11.88;100.00
42601;BME280;28229;48.856;9.088;2023-05-10T04:08:27;97448.41;;;11.88;100.00
42601;BME280;28229;48.856;9.088;2023-05-10T04:10:53;97447.78;;;11.81;100.00
42601;BME280;28229;48.856;9.088;2023-05-10T04:13:21;97438.50;;;11.78;100.00
42601;BME280;28229;48.856;9.088;2023-05-10T04:15:48;97451.97;;;11.94;100.00
42601;BME280;28229;48.856;9.088;2023-05-10T04:18:14;97449.09;;;11.95;100.00
42601;BME280;28229;48.856;9.088;2023-05-10T04:20:40;97451.66;;;11.90;100.00
42601;BME280;28229;48.856;9.088;2023-05-10T04:23:06;97439.84;;;11.93;100.00
42601;BME280;28229;48.856;9.088;2023-05-10T04:25:34;97448.09;;;11.85;100.00
42601;BME280;28229;48.856;9.088;2023-05-10T04:28:01;97457.38;;;11.87;100.00
42601;BME280;28229;48.856;9.088;2023-05-10T04:30:27;97450.97;;;11.83;100.00
42601;BME280;28229;48.856;9.088;2023-05-10T04:32:55;97453.47;;;11.90;100.00
42601;BME280;28229;48.856;9.088;2023-05-10T04:35:21;97463.44;;;11.88;100.00
42601;BME280;28229;48.856;9.088;2023-05-10T04:37:47;97456.09;;;11.90;100.00
42601;BME280;28229;48.856;9.088;2023-05-10T04:40:13;97455.53;;;11.88;100.00
42601;BME280;28229;48.856;9.088;2023-05-10T04:42:40;97456.09;;;11.90;100.00
42601;BME280;28229;48.856;9.088;2023-05-10T04:45:07;97455.16;;;11.96;100.00
42601;BME280;28229;48.856;9.088;2023-05-10T04:47:35;97459.09;;;11.93;100.00
42601;BME280;28229;48.856;9.088;2023-05-10T04:50:06;97465.25;;;11.99;100.00
42601;BME280;28229;48.856;9.088;2023-05-10T04:52:32;97471.06;;;12.01;100.00
42601;BME280;28229;48.856;9.088;2023-05-10T04:54:58;97475.88;;;12.04;100.00
42601;BME280;28229;48.856;9.088;2023-05-10T04:57:25;97470.03;;;12.02;100.00
42601;BME280;28229;48.856;9.088;2023-05-10T04:59:51;97471.06;;;12.01;100.00
42601;BME280;28229;48.856;9.088;2023-05-10T05:02:17;97476.91;;;12.03;100.00
42601;BME280;28229;48.856;9.088;2023-05-10T05:04:44;97472.94;;;12.17;100.00
42601;BME280;28229;48.856;9.088;2023-05-10T05:07:10;97476.47;;;12.23;100.00
42601;BME280;28229;48.856;9.088;2023-05-10T05:09:36;97478.53;;;12.21;100.00
42601;BME280;28229;48.856;9.088;2023-05-10T05:12:03;97480.22;;;12.27;100.00
42601;BME280;28229;48.856;9.088;2023-05-10T05:14:29;97479.50;;;12.32;100.00
42601;BME280;28229;48.856;9.088;2023-05-10T05:16:55;97483.66;;;12.28;100.00
42601;BME280;28229;48.856;9.088;2023-05-10T05:19:21;97478.63;;;12.43;100.00
42601;BME280;28229;48.856;9.088;2023-05-10T05:21:48;97485.50;;;12.44;100.00
42601;BME280;28229;48.856;9.088;2023-05-10T05:24:14;97483.00;;;12.54;100.00
42601;BME280;28229;48.856;9.088;2023-05-10T05:26:40;97483.09;;;12.60;100.00
42601;BME280;28229;48.856;9.088;2023-05-10T05:29:07;97489.09;;;12.72;100.00
42601;BME280;28229;48.856;9.088;2023-05-10T05:31:33;97489.78;;;12.84;100.00
42601;BME280;28229;48.856;9.088;2023-05-10T05:33:59;97490.25;;;12.81;100.00
42601;BME280;28229;48.856;9.088;2023-05-10T05:36:25;97494.03;;;12.85;100.00
42601;BME280;28229;48.856;9.088;2023-05-10T05:38:52;97495.06;;;12.84;100.00
42601;BME280;28229;48.856;9.088;2023-05-10T05:41:18;97494.75;;;12.81;100.00
42601;BME280;28229;48.856;9.088;2023-05-10T05:43:44;97497.22;;;12.87;100.00
42601;BME280;28229;48.856;9.088;2023-05-10T05:46:10;97489.78;;;12.84;100.00
42601;BME280;28229;48.856;9.088;2023-05-10T05:48:36;97491.94;;;12.87;100.00
42601;BME280;28229;48.856;9.088;2023-05-10T05:51:03;97502.31;;;12.94;100.00
42601;BME280;28229;48.856;9.088;2023-05-10T05:53:29;97504.41;;;12.92;100.00
42601;BME280;28229;48.856;9.088;2023-05-10T05:55:57;97501.53;;;12.93;100.00
42601;BME280;28229;48.856;9.088;2023-05-10T05:58:25;97498.66;;;12.95;100.00
42601;BME280;28229;48.856;9.088;2023-05-10T06:00:51;97505.63;;;13.01;100.00
42601;BME280;28229;48.856;9.088;2023-05-10T06:03:18;97508.31;;;13.06;100.00
42601;BME280;28229;48.856;9.088;2023-05-10T06:05:44;97503.28;;;13.05;100.00
42601;BME280;28229;48.856;9.088;2023-05-10T06:08:10;97512.78;;;13.06;100.00
42601;BME280;28229;48.856;9.088;2023-05-10T06:10:37;97512.88;;;13.11;100.00
42601;BME280;28229;48.856;9.088;2023-05-10T06:13:03;97509.00;;;13.19;100.00
42601;BME280;28229;48.856;9.088;2023-05-10T06:15:29;97508.81;;;13.25;100.00
42601;BME280;28229;48.856;9.088;2023-05-10T06:17:55;97512.19;;;13.38;100.00
42601;BME280;28229;48.856;9.088;2023-05-10T06:20:21;97517.47;;;13.38;100.00
42601;BME280;28229;48.856;9.088;2023-05-10T06:22:48;97525.78;;;13.46;100.00
42601;BME280;28229;48.856;9.088;2023-05-10T06:25:17;97519.69;;;13.46;100.00
42601;BME280;28229;48.856;9.088;2023-05-10T06:27:46;97518.41;;;13.48;100.00
42601;BME280;28229;48.856;9.088;2023-05-10T06:30:12;97525.28;;;13.49;100.00
42601;BME280;28229;48.856;9.088;2023-05-10T06:32:41;97526.88;;;13.50;100.00
42601;BME280;28229;48.856;9.088;2023-05-10T06:35:07;97527.34;;;13.47;100.00
42601;BME280;28229;48.856;9.088;2023-05-10T06:37:34;97524.97;;;13.46;100.00
42601;BME280;28229;48.856;9.088;2023-05-10T06:40:00;97521.72;;;13.39;100.00
42601;BME280;28229;48.856;9.088;2023-05-10T06:42:27;97529.81;;;13.32;100.00
42601;BME280;28229;48.856;9.088;2023-05-10T06:44:53;97526.94;;;13.33;100.00
42601;BME280;28229;48.856;9.088;2023-05-10T06:47:19;97522.19;;;13.36;100.00
42601;BME280;28229;48.856;9.088;2023-05-10T06:49:46;97525.41;;;13.38;100.00
42601;BME280;28229;48.856;9.088;2023-05-10T06:52:12;97529.13;;;13.42;100.00
42601;BME280;28229;48.856;9.088;2023-05-10T06:54:38;97524.38;;;13.39;100.00
42601;BME280;28229;48.856;9.088;2023-05-10T06:57:04;97528.59;;;13.40;99.92
42601;BME280;28229;48.856;9.088;2023-05-10T06:59:30;97527.56;;;13.41;99.68
42601;BME280;28229;48.856;9.088;2023-05-10T07:01:56;97529.06;;;13.37;100.00
42601;BME280;28229;48.856;9.088;2023-05-10T07:04:23;97525.94;;;13.40;98.23
42601;BME280;28229;48.856;9.088;2023-05-10T07:06:49;97531.59;;;13.48;99.17
42601;BME280;28229;48.856;9.088;2023-05-10T07:09:15;97535.53;;;13.68;100.00
42601;BME280;28229;48.856;9.088;2023-05-10T07:11:41;97536.63;;;13.72;96.02
42601;BME280;28229;48.856;9.088;2023-05-10T07:14:07;97528.03;;;13.82;97.80
42601;BME280;28229;48.856;9.088;2023-05-10T07:16:33;97541.84;;;13.89;93.73
42601;BME280;28229;48.856;9.088;2023-05-10T07:19:00;97538.22;;;13.95;94.18
42601;BME280;28229;48.856;9.088;2023-05-10T07:21:26;97540.91;;;14.00;95.24
42601;BME280;28229;48.856;9.088;2023-05-10T07:23:54;97543.13;;;14.08;95.20
42601;BME280;28229;48.856;9.088;2023-05-10T07:26:20;97541.13;;;14.21;95.72
42601;BME280;28229;48.856;9.088;2023-05-10T07:28:47;97547.00;;;14.28;92.66
42601;BME280;28229;48.856;9.088;2023-05-10T07:31:38;97545.75;;;14.36;91.52
42601;BME280;28229;48.856;9.088;2023-05-10T07:34:04;97548.19;;;14.42;91.74
42601;BME280;28229;48.856;9.088;2023-05-10T07:36:30;97549.50;;;14.40;89.67
42601;BME280;28229;48.856;9.088;2023-05-10T07:38:56;97540.97;;;14.33;86.45
42601;BME280;28229;48.856;9.088;2023-05-10T07:41:23;97552.69;;;14.42;87.81
42601;BME280;28229;48.856;9.088;2023-05-10T07:43:49;97555.59;;;14.40;85.79
42601;BME280;28229;48.856;9.088;2023-05-10T07:46:16;97549.78;;;14.43;85.54
42601;BME280;28229;48.856;9.088;2023-05-10T07:48:42;97557.78;;;14.48;85.65
42601;BME280;28229;48.856;9.088;2023-05-10T07:51:08;97556.78;;;14.55;85.06
42601;BME280;28229;48.856;9.088;2023-05-10T07:53:35;97555.16;;;14.54;83.69
42601;BME280;28229;48.856;9.088;2023-05-10T07:56:28;97565.25;;;14.57;82.86
42601;BME280;28229;48.856;9.088;2023-05-10T07:59:03;97562.16;;;14.65;82.52
42601;BME280;28229;48.856;9.088;2023-05-10T08:01:34;97564.38;;;14.73;84.37
42601;BME280;28229;48.856;9.088;2023-05-10T08:04:00;97566.56;;;14.81;83.32
42601;BME280;28229;48.856;9.088;2023-05-10T08:06:27;97562.56;;;14.79;82.64
42601;BME280;28229;48.856;9.088;2023-05-10T08:08:55;97565.53;;;14.88;80.71
42601;BME280;28229;48.856;9.088;2023-05-10T08:11:22;97572.16;;;14.85;80.17
42601;BME280;28229;48.856;9.088;2023-05-10T08:13:49;97560.69;;;14.74;77.39
42601;BME280;28229;48.856;9.088;2023-05-10T08:16:17;97567.56;;;14.75;78.77
42601;BME280;28229;48.856;9.088;2023-05-10T08:18:44;97569.13;;;14.71;76.99
42601;BME280;28229;48.856;9.088;2023-05-10T08:21:11;97568.03;;;14.67;78.17
42601;BME280;28229;48.856;9.088;2023-05-10T08:23:37;97568.06;;;14.72;79.18
42601;BME280;28229;48.856;9.088;2023-05-10T08:26:03;97573.34;;;14.72;78.64
42601;BME280;28229;48.856;9.088;2023-05-10T08:28:30;97576.03;;;14.77;79.59
42601;BME280;28229;48.856;9.088;2023-05-10T08:30:56;97577.16;;;14.81;79.61
42601;BME280;28229;48.856;9.088;2023-05-10T08:33:22;97578.22;;;14.85;80.11
42601;BME280;28229;48.856;9.088;2023-05-10T08:35:48;97584.91;;;14.93;78.36
42601;BME280;28229;48.856;9.088;2023-05-10T08:38:14;97582.59;;;15.02;75.27
42601;BME280;28229;48.856;9.088;2023-05-10T08:40:42;97580.47;;;15.04;74.46
42601;BME280;28229;48.856;9.088;2023-05-10T08:43:12;97585.28;;;15.07;74.02
42601;BME280;28229;48.856;9.088;2023-05-10T08:45:43;97591.16;;;15.14;74.07
42601;BME280;28229;48.856;9.088;2023-05-10T08:48:11;97586.44;;;15.21;73.82
42601;BME280;28229;48.856;9.088;2023-05-10T08:50:39;97586.50;;;15.32;74.17
42601;BME280;28229;48.856;9.088;2023-05-10T08:53:09;97583.91;;;15.42;75.28
42601;BME280;28229;48.856;9.088;2023-05-10T08:55:37;97586.88;;;15.56;74.69
42601;BME280;28229;48.856;9.088;2023-05-10T08:58:05;97585.06;;;15.61;73.29
42601;BME280;28229;48.856;9.088;2023-05-10T09:00:32;97590.09;;;15.63;72.96
42601;BME280;28229;48.856;9.088;2023-05-10T09:02:58;97594.63;;;15.68;72.56
42601;BME280;28229;48.856;9.088;2023-05-10T09:05:25;97592.22;;;15.66;71.98
42601;BME280;28229;48.856;9.088;2023-05-10T09:07:51;97595.69;;;15.72;71.73
42601;BME280;28229;48.856;9.088;2023-05-10T09:10:19;97604.19;;;15.74;70.80
42601;BME280;28229;48.856;9.088;2023-05-10T09:12:45;97597.91;;;15.80;71.42
42601;BME280;28229;48.856;9.088;2023-05-10T09:15:14;97602.13;;;15.76;72.33
42601;BME280;28229;48.856;9.088;2023-05-10T09:17:42;97598.97;;;15.84;71.45
42601;BME280;28229;48.856;9.088;2023-05-10T09:20:28;97613.59;;;15.97;71.80
42601;BME280;28229;48.856;9.088;2023-05-10T09:22:55;97614.97;;;16.05;70.41
42601;BME280;28229;48.856;9.088;2023-05-10T09:25:21;97621.34;;;16.09;69.53
42601;BME280;28229;48.856;9.088;2023-05-10T09:27:48;97615.75;;;16.05;69.20
42601;BME280;28229;48.856;9.088;2023-05-10T09:30:27;97609.13;;;15.97;69.34
42601;BME280;28229;48.856;9.088;2023-05-10T09:32:54;97613.88;;;15.95;69.69
42601;BME280;28229;48.856;9.088;2023-05-10T09:35:23;97613.59;;;15.87;68.41
42601;BME280;28229;48.856;9.088;2023-05-10T09:37:51;97613.59;;;15.87;70.91
42601;BME280;28229;48.856;9.088;2023-05-10T09:40:25;97610.63;;;15.78;71.57
42601;BME280;28229;48.856;9.088;2023-05-10T09:45:18;97622.75;;;15.69;72.19
42601;BME280;28229;48.856;9.088;2023-05-10T09:47:45;97620.03;;;15.58;72.19
42601;BME280;28229;48.856;9.088;2023-05-10T09:50:11;97624.78;;;15.51;73.07
42601;BME280;28229;48.856;9.088;2023-05-10T09:52:52;97629.53;;;15.49;74.46
42601;BME280;28229;48.856;9.088;2023-05-10T09:55:20;97628.00;;;15.58;76.85
42601;BME280;28229;48.856;9.088;2023-05-10T09:57:48;97626.69;;;15.61;74.30
42601;BME280;28229;48.856;9.088;2023-05-10T10:00:19;97628.53;;;15.60;74.21
42601;BME280;28229;48.856;9.088;2023-05-10T10:02:48;97636.56;;;15.71;73.18
42601;BME280;28229;48.856;9.088;2023-05-10T10:05:20;97633.38;;;15.74;71.87
42601;BME280;28229;48.856;9.088;2023-05-10T10:07:46;97631.84;;;15.78;72.72
42601;BME280;28229;48.856;9.088;2023-05-10T10:10:15;97627.59;;;15.82;71.41
42601;BME280;28229;48.856;9.088;2023-05-10T10:12:41;97627.38;;;15.89;71.91
42601;BME280;28229;48.856;9.088;2023-05-10T10:15:08;97631.41;;;16.02;71.18
42601;BME280;28229;48.856;9.088;2023-05-10T10:17:36;97633.56;;;16.10;71.81
42601;BME280;28229;48.856;9.088;2023-05-10T10:20:04;97628.00;;;16.11;71.88
42601;BME280;28229;48.856;9.088;2023-05-10T10:22:30;97631.41;;;16.02;70.22
42601;BME280;28229;48.856;9.088;2023-05-10T10:24:56;97624.44;;;15.85;70.02
42601;BME280;28229;48.856;9.088;2023-05-10T10:30:39;97629.06;;;16.10;70.08
42601;BME280;28229;48.856;9.088;2023-05-10T10:35:54;97635.38;;;16.04;69.42
42601;BME280;28229;48.856;9.088;2023-05-10T10:38:22;97626.59;;;15.93;69.66
42601;BME280;28229;48.856;9.088;2023-05-10T10:41:01;97632.97;;;15.92;67.35
42601;BME280;28229;48.856;9.088;2023-05-10T10:43:31;97625.47;;;15.79;65.49
42601;BME280;28229;48.856;9.088;2023-05-10T10:48:37;97638.81;;;15.52;65.78
42601;BME280;28229;48.856;9.088;2023-05-10T10:51:03;97635.97;;;15.58;66.52
42601;BME280;28229;48.856;9.088;2023-05-10T10:53:29;97635.44;;;15.67;67.15
42601;BME280;28229;48.856;9.088;2023-05-10T10:56:10;97631.75;;;15.68;66.65
42601;BME280;28229;48.856;9.088;2023-05-10T10:58:37;97635.59;;;15.87;66.93
42601;BME280;28229;48.856;9.088;2023-05-10T11:01:15;97628.25;;;16.10;66.47
42601;BME280;28229;48.856;9.088;2023-05-10T11:06:32;97630.47;;;16.39;65.03
42601;BME280;28229;48.856;9.088;2023-05-10T11:09:05;97637.66;;;16.53;66.39
42601;BME280;28229;48.856;9.088;2023-05-10T11:11:34;97633.69;;;16.61;63.97
42601;BME280;28229;48.856;9.088;2023-05-10T11:14:04;97635.53;;;16.55;62.71
42601;BME280;28229;48.856;9.088;2023-05-10T11:16:43;97642.97;;;16.53;61.57
42601;BME280;28229;48.856;9.088;2023-05-10T11:19:14;97636.06;;;16.63;59.32
42601;BME280;28229;48.856;9.088;2023-05-10T11:24:22;97630.53;;;16.80;58.85
42601;BME280;28229;48.856;9.088;2023-05-10T11:26:53;97632.41;;;16.94;58.84
42601;BME280;28229;48.856;9.088;2023-05-10T11:29:19;97635.34;;;16.98;57.99
42601;BME280;28229;48.856;9.088;2023-05-10T11:31:46;97633.72;;;16.82;58.47
42601;BME280;28229;48.856;9.088;2023-05-10T11:34:33;97635.88;;;17.00;60.74
42601;BME280;28229;48.856;9.088;2023-05-10T11:36:59;97643.56;;;17.12;58.78
42601;BME280;28229;48.856;9.088;2023-05-10T11:39:30;97640.09;;;17.22;58.55
42601;BME280;28229;48.856;9.088;2023-05-10T11:41:58;97646.19;;;17.38;56.59
42601;BME280;28229;48.856;9.088;2023-05-10T11:44:33;97639.03;;;17.43;56.72
42601;BME280;28229;48.856;9.088;2023-05-10T11:47:03;97649.94;;;17.42;58.92
42601;BME280;28229;48.856;9.088;2023-05-10T11:49:29;97647.56;;;17.35;58.97
42601;BME280;28229;48.856;9.088;2023-05-10T11:52:08;97643.84;;;17.16;57.70
42601;BME280;28229;48.856;9.088;2023-05-10T11:54:34;97651.56;;;17.07;58.47
42601;BME280;28229;48.856;9.088;2023-05-10T11:57:01;97656.59;;;17.03;59.74
42601;BME280;28229;48.856;9.088;2023-05-10T11:59:27;97647.03;;;16.97;59.07
42601;BME280;28229;48.856;9.088;2023-05-10T12:01:53;97652.88;;;16.94;60.66
42601;BME280;28229;48.856;9.088;2023-05-10T12:04:20;97653.41;;;16.91;60.71
42601;BME280;28229;48.856;9.088;2023-05-10T12:06:46;97650.22;;;16.89;59.83
42601;BME280;28229;48.856;9.088;2023-05-10T12:09:13;97656.56;;;16.78;58.40
42601;BME280;28229;48.856;9.088;2023-05-10T12:11:40;97659.72;;;16.64;56.00
42601;BME280;28229;48.856;9.088;2023-05-10T12:14:08;97654.38;;;16.54;54.89
42601;BME280;28229;48.856;9.088;2023-05-10T12:16:34;97659.13;;;16.47;55.85
42601;BME280;28229;48.856;9.088;2023-05-10T12:19:01;97663.41;;;16.48;55.97
42601;BME280;28229;48.856;9.088;2023-05-10T12:21:29;97666.56;;;16.45;56.40
42601;BME280;28229;48.856;9.088;2023-05-10T12:24:01;97667.66;;;16.49;56.39
42601;BME280;28229;48.856;9.088;2023-05-10T12:26:28;97672.19;;;16.59;55.07
42601;BME280;28229;48.856;9.088;2023-05-10T12:29:11;97669.28;;;16.60;54.39
42601;BME280;28229;48.856;9.088;2023-05-10T12:31:57;97669.81;;;16.62;55.33
42601;BME280;28229;48.856;9.088;2023-05-10T12:36:55;97679.19;;;16.85;55.69
42601;BME280;28229;48.856;9.088;2023-05-10T12:39:21;97678.41;;;16.90;56.31
42601;BME280;28229;48.856;9.088;2023-05-10T12:41:47;97678.88;;;16.82;55.41
42601;BME280;28229;48.856;9.088;2023-05-10T12:44:13;97681.75;;;16.70;56.98
42601;BME280;28229;48.856;9.088;2023-05-10T12:46:42;97675.16;;;16.78;56.53
42601;BME280;28229;48.856;9.088;2023-05-10T12:49:08;97679.44;;;16.94;56.58
42601;BME280;28229;48.856;9.088;2023-05-10T12:51:36;97673.88;;;17.01;55.18
42601;BME280;28229;48.856;9.088;2023-05-10T12:54:03;97682.38;;;17.03;55.80
42601;BME280;28229;48.856;9.088;2023-05-10T12:56:29;97677.59;;;17.10;56.64
42601;BME280;28229;48.856;9.088;2023-05-10T12:58:55;97679.44;;;17.15;56.32
42601;BME280;28229;48.856;9.088;2023-05-10T13:01:24;97670.44;;;17.16;56.50
42601;BME280;28229;48.856;9.088;2023-05-10T13:03:50;97677.59;;;17.15;56.83
42601;BME280;28229;48.856;9.088;2023-05-10T13:06:16;97674.13;;;17.25;57.53
42601;BME280;28229;48.856;9.088;2023-05-10T13:08:43;97676.78;;;17.30;55.27
42601;BME280;28229;48.856;9.088;2023-05-10T13:11:10;97679.97;;;17.42;55.42
42601;BME280;28229;48.856;9.088;2023-05-10T13:13:36;97679.97;;;17.42;54.02
42601;BME280;28229;48.856;9.088;2023-05-10T13:16:05;97670.69;;;17.29;54.27
42601;BME280;28229;48.856;9.088;2023-05-10T13:18:31;97673.63;;;17.28;54.87
42601;BME280;28229;48.856;9.088;2023-05-10T13:20:57;97661.38;;;17.27;55.04
42601;BME280;28229;48.856;9.088;2023-05-10T13:23:23;97668.28;;;17.28;55.46
42601;BME280;28229;48.856;9.088;2023-05-10T13:25:49;97667.78;;;17.26;55.88
42601;BME280;28229;48.856;9.088;2023-05-10T13:28:15;97676.78;;;17.20;54.95
42601;BME280;28229;48.856;9.088;2023-05-10T13:30:41;97668.28;;;17.18;55.06
42601;BME280;28229;48.856;9.088;2023-05-10T13:33:08;97673.06;;;17.10;55.48
42601;BME280;28229;48.856;9.088;2023-05-10T13:35:34;97674.13;;;17.15;56.06
42601;BME280;28229;48.856;9.088;2023-05-10T13:38:00;97663.22;;;17.11;54.49